sensor_id;sensor_type;location;lat;lon;timestamp;P1;durP1;ratioP1;P2;durP2;ratioP2
74974;SDS011;68459;50.836;19.138;2023-10-31T00:02:01;10.73;;;4.30;;
74974;SDS011;68459;50.836;19.138;2023-10-31T00:05:05;11.20;;;4.20;;
74974;SDS011;68459;50.836;19.138;2023-10-31T00:08:09;8.87;;;3.97;;
74974;SDS011;68459;50.836;19.138;2023-10-31T00:11:13;7.47;;;3.80;;
74974;SDS011;68459;50.836;19.138;2023-10-31T00:14:18;9.90;;;4.00;;
74974;SDS011;68459;50.836;19.138;2023-10-31T00:17:32;10.27;;;4.13;;
74974;SDS011;68459;50.836;19.138;2023-10-31T00:20:36;12.75;;;4.10;;
74974;SDS011;68459;50.836;19.138;2023-10-31T00:23:42;13.07;;;4.20;;
74974;SDS011;68459;50.836;19.138;2023-10-31T00:26:47;8.43;;;4.05;;
74974;SDS011;68459;50.836;19.138;2023-10-31T00:29:52;9.27;;;4.13;;
74974;SDS011;68459;50.836;19.138;2023-10-31T00:32:55;11.25;;;4.72;;
74974;SDS011;68459;50.836;19.138;2023-10-31T00:35:59;9.65;;;4.45;;
74974;SDS011;68459;50.836;19.138;2023-10-31T00:39:03;9.20;;;4.10;;
74974;SDS011;68459;50.836;19.138;2023-10-31T00:42:06;9.60;;;3.90;;
74974;SDS011;68459;50.836;19.138;2023-10-31T00:45:12;12.38;;;4.53;;
74974;SDS011;68459;50.836;19.138;2023-10-31T00:48:15;8.55;;;3.95;;
74974;SDS011;68459;50.836;19.138;2023-10-31T00:51:19;11.63;;;4.40;;
74974;SDS011;68459;50.836;19.138;2023-10-31T00:54:23;10.15;;;4.63;;
74974;SDS011;68459;50.836;19.138;2023-10-31T00:57:27;7.28;;;4.10;;
74974;SDS011;68459;50.836;19.138;2023-10-31T01:00:33;7.83;;;3.90;;
74974;SDS011;68459;50.836;19.138;2023-10-31T01:03:39;10.65;;;3.95;;
74974;SDS011;68459;50.836;19.138;2023-10-31T01:06:43;11.93;;;3.90;;
74974;SDS011;68459;50.836;19.138;2023-10-31T01:09:47;10.10;;;3.83;;
74974;SDS011;68459;50.836;19.138;2023-10-31T01:12:50;9.73;;;3.78;;
74974;SDS011;68459;50.836;19.138;2023-10-31T01:15:56;12.15;;;4.35;;
74974;SDS011;68459;50.836;19.138;2023-10-31T01:18:59;10.55;;;3.70;;
74974;SDS011;68459;50.836;19.138;2023-10-31T01:22:03;8.80;;;3.50;;
74974;SDS011;68459;50.836;19.138;2023-10-31T01:25:09;6.30;;;3.05;;
74974;SDS011;68459;50.836;19.138;2023-10-31T01:28:13;7.75;;;3.72;;
74974;SDS011;68459;50.836;19.138;2023-10-31T01:31:18;8.67;;;3.37;;
74974;SDS011;68459;50.836;19.138;2023-10-31T01:34:22;8.25;;;3.42;;
74974;SDS011;68459;50.836;19.138;2023-10-31T01:37:26;9.60;;;3.42;;
74974;SDS011;68459;50.836;19.138;2023-10-31T01:40:30;8.30;;;3.57;;
74974;SDS011;68459;50.836;19.138;2023-10-31T01:43:35;6.60;;;2.30;;
74974;SDS011;68459;50.836;19.138;2023-10-31T01:46:41;5.88;;;1.98;;
74974;SDS011;68459;50.836;19.138;2023-10-31T01:49:45;5.72;;;1.90;;
74974;SDS011;68459;50.836;19.138;2023-10-31T01:52:49;4.28;;;1.85;;
74974;SDS011;68459;50.836;19.138;2023-10-31T01:55:54;5.28;;;1.98;;
74974;SDS011;68459;50.836;19.138;2023-10-31T01:59:00;5.97;;;1.67;;
74974;SDS011;68459;50.836;19.138;2023-10-31T02:02:05;3.90;;;1.60;;
74974;SDS011;68459;50.836;19.138;2023-10-31T02:05:10;6.10;;;1.70;;
74974;SDS011;68459;50.836;19.138;2023-10-31T02:08:13;3.72;;;1.55;;
74974;SDS011;68459;50.836;19.138;2023-10-31T02:11:17;4.37;;;1.57;;
74974;SDS011;68459;50.836;19.138;2023-10-31T02:14:23;4.35;;;1.50;;
74974;SDS011;68459;50.836;19.138;2023-10-31T02:17:29;4.57;;;1.60;;
74974;SDS011;68459;50.836;19.138;2023-10-31T02:20:33;5.00;;;1.60;;
74974;SDS011;68459;50.836;19.138;2023-10-31T02:23:38;4.68;;;1.30;;
74974;SDS011;68459;50.836;19.138;2023-10-31T02:26:42;4.65;;;1.50;;
74974;SDS011;68459;50.836;19.138;2023-10-31T02:29:45;4.95;;;1.60;;
74974;SDS011;68459;50.836;19.138;2023-10-31T02:32:49;7.30;;;1.50;;
74974;SDS011;68459;50.836;19.138;2023-10-31T02:35:53;7.35;;;1.45;;
74974;SDS011;68459;50.836;19.138;2023-10-31T02:38:58;4.95;;;2.03;;
74974;SDS011;68459;50.836;19.138;2023-10-31T02:42:03;5.80;;;1.70;;
74974;SDS011;68459;50.836;19.138;2023-10-31T02:45:07;4.20;;;1.23;;
74974;SDS011;68459;50.836;19.138;2023-10-31T02:48:12;3.35;;;1.10;;
74974;SDS011;68459;50.836;19.138;2023-10-31T02:51:15;4.40;;;1.20;;
74974;SDS011;68459;50.836;19.138;2023-10-31T02:54:21;4.18;;;1.30;;
74974;SDS011;68459;50.836;19.138;2023-10-31T02:57:25;4.65;;;1.30;;
74974;SDS011;68459;50.836;19.138;2023-10-31T03:00:29;3.85;;;1.50;;
74974;SDS011;68459;50.836;19.138;2023-10-31T03:03:32;6.30;;;1.40;;
74974;SDS011;68459;50.836;19.138;2023-10-31T03:06:36;7.93;;;1.60;;
74974;SDS011;68459;50.836;19.138;2023-10-31T03:09:41;5.07;;;1.38;;
74974;SDS011;68459;50.836;19.138;2023-10-31T03:12:45;4.27;;;1.27;;
74974;SDS011;68459;50.836;19.138;2023-10-31T03:15:49;5.30;;;1.70;;
74974;SDS011;68459;50.836;19.138;2023-10-31T03:18:52;4.05;;;1.58;;
74974;SDS011;68459;50.836;19.138;2023-10-31T03:21:56;4.75;;;1.45;;
74974;SDS011;68459;50.836;19.138;2023-10-31T03:25:01;4.28;;;1.40;;
74974;SDS011;68459;50.836;19.138;2023-10-31T03:28:07;5.45;;;1.90;;
74974;SDS011;68459;50.836;19.138;2023-10-31T03:31:25;4.53;;;1.35;;
74974;SDS011;68459;50.836;19.138;2023-10-31T03:34:29;11.97;;;1.80;;
74974;SDS011;68459;50.836;19.138;2023-10-31T03:37:32;5.78;;;1.70;;
74974;SDS011;68459;50.836;19.138;2023-10-31T03:40:39;5.30;;;1.48;;
74974;SDS011;68459;50.836;19.138;2023-10-31T03:43:43;8.30;;;1.47;;
74974;SDS011;68459;50.836;19.138;2023-10-31T03:46:47;5.63;;;1.55;;
74974;SDS011;68459;50.836;19.138;2023-10-31T03:49:50;3.72;;;1.55;;
74974;SDS011;68459;50.836;19.138;2023-10-31T03:52:55;5.82;;;1.38;;
74974;SDS011;68459;50.836;19.138;2023-10-31T03:56:00;5.22;;;1.70;;
74974;SDS011;68459;50.836;19.138;2023-10-31T03:59:04;3.72;;;1.38;;
74974;SDS011;68459;50.836;19.138;2023-10-31T04:02:07;5.25;;;1.58;;
74974;SDS011;68459;50.836;19.138;2023-10-31T04:05:11;3.60;;;1.30;;
74974;SDS011;68459;50.836;19.138;2023-10-31T04:08:15;6.43;;;1.65;;
74974;SDS011;68459;50.836;19.138;2023-10-31T04:11:20;5.18;;;1.55;;
74974;SDS011;68459;50.836;19.138;2023-10-31T04:14:23;4.63;;;1.30;;
74974;SDS011;68459;50.836;19.138;2023-10-31T04:17:27;6.82;;;1.90;;
74974;SDS011;68459;50.836;19.138;2023-10-31T04:20:31;5.40;;;1.90;;
74974;SDS011;68459;50.836;19.138;2023-10-31T04:23:34;4.25;;;1.52;;
74974;SDS011;68459;50.836;19.138;2023-10-31T04:26:42;4.13;;;1.50;;
74974;SDS011;68459;50.836;19.138;2023-10-31T04:29:46;4.95;;;1.70;;
74974;SDS011;68459;50.836;19.138;2023-10-31T04:32:49;8.15;;;1.50;;
74974;SDS011;68459;50.836;19.138;2023-10-31T04:35:53;5.67;;;1.47;;
74974;SDS011;68459;50.836;19.138;2023-10-31T04:38:57;7.30;;;1.52;;
74974;SDS011;68459;50.836;19.138;2023-10-31T04:42:02;5.18;;;1.77;;
74974;SDS011;68459;50.836;19.138;2023-10-31T04:45:06;5.33;;;1.57;;
74974;SDS011;68459;50.836;19.138;2023-10-31T04:48:11;4.05;;;1.77;;
74974;SDS011;68459;50.836;19.138;2023-10-31T04:51:15;4.05;;;1.58;;
74974;SDS011;68459;50.836;19.138;2023-10-31T04:54:19;4.78;;;1.90;;
74974;SDS011;68459;50.836;19.138;2023-10-31T04:57:24;3.28;;;1.35;;
74974;SDS011;68459;50.836;19.138;2023-10-31T05:00:27;5.15;;;1.60;;
74974;SDS011;68459;50.836;19.138;2023-10-31T05:03:31;6.65;;;2.10;;
74974;SDS011;68459;50.836;19.138;2023-10-31T05:06:35;6.40;;;2.30;;
74974;SDS011;68459;50.836;19.138;2023-10-31T05:09:39;8.07;;;2.05;;
74974;SDS011;68459;50.836;19.138;2023-10-31T05:12:49;4.80;;;2.20;;
74974;SDS011;68459;50.836;19.138;2023-10-31T05:15:53;4.10;;;1.67;;
74974;SDS011;68459;50.836;19.138;2023-10-31T05:18:56;4.47;;;1.88;;
74974;SDS011;68459;50.836;19.138;2023-10-31T05:22:06;7.70;;;1.70;;
74974;SDS011;68459;50.836;19.138;2023-10-31T05:25:09;5.85;;;1.88;;
74974;SDS011;68459;50.836;19.138;2023-10-31T05:28:15;8.25;;;2.15;;
74974;SDS011;68459;50.836;19.138;2023-10-31T05:31:18;7.57;;;1.73;;
74974;SDS011;68459;50.836;19.138;2023-10-31T05:34:22;5.90;;;2.45;;
74974;SDS011;68459;50.836;19.138;2023-10-31T05:37:26;6.73;;;2.00;;
74974;SDS011;68459;50.836;19.138;2023-10-31T05:40:29;6.68;;;2.50;;
74974;SDS011;68459;50.836;19.138;2023-10-31T05:43:35;6.75;;;1.73;;
74974;SDS011;68459;50.836;19.138;2023-10-31T05:46:39;5.73;;;2.07;;
74974;SDS011;68459;50.836;19.138;2023-10-31T05:49:43;5.47;;;2.13;;
74974;SDS011;68459;50.836;19.138;2023-10-31T05:52:47;5.25;;;2.30;;
74974;SDS011;68459;50.836;19.138;2023-10-31T05:55:50;5.38;;;1.65;;
74974;SDS011;68459;50.836;19.138;2023-10-31T05:58:55;5.70;;;1.73;;
74974;SDS011;68459;50.836;19.138;2023-10-31T06:01:59;4.50;;;1.52;;
74974;SDS011;68459;50.836;19.138;2023-10-31T06:05:03;5.40;;;1.98;;
74974;SDS011;68459;50.836;19.138;2023-10-31T06:08:07;4.27;;;1.80;;
74974;SDS011;68459;50.836;19.138;2023-10-31T06:11:11;7.25;;;2.22;;
74974;SDS011;68459;50.836;19.138;2023-10-31T06:14:16;5.88;;;1.70;;
74974;SDS011;68459;50.836;19.138;2023-10-31T06:17:20;6.57;;;2.10;;
74974;SDS011;68459;50.836;19.138;2023-10-31T06:20:23;5.97;;;1.98;;
74974;SDS011;68459;50.836;19.138;2023-10-31T06:23:27;4.18;;;1.30;;
74974;SDS011;68459;50.836;19.138;2023-10-31T06:26:33;6.72;;;1.80;;
74974;SDS011;68459;50.836;19.138;2023-10-31T06:29:39;4.03;;;1.90;;
74974;SDS011;68459;50.836;19.138;2023-10-31T06:33:02;6.05;;;1.85;;
74974;SDS011;68459;50.836;19.138;2023-10-31T06:36:06;7.22;;;1.90;;
74974;SDS011;68459;50.836;19.138;2023-10-31T06:39:11;4.87;;;1.47;;
74974;SDS011;68459;50.836;19.138;2023-10-31T06:42:15;4.55;;;1.50;;
74974;SDS011;68459;50.836;19.138;2023-10-31T06:45:20;5.60;;;1.58;;
74974;SDS011;68459;50.836;19.138;2023-10-31T06:48:24;4.20;;;1.30;;
74974;SDS011;68459;50.836;19.138;2023-10-31T06:51:28;7.75;;;1.33;;
74974;SDS011;68459;50.836;19.138;2023-10-31T06:54:31;6.63;;;1.30;;
74974;SDS011;68459;50.836;19.138;2023-10-31T06:57:36;3.65;;;1.27;;
74974;SDS011;68459;50.836;19.138;2023-10-31T07:00:41;2.85;;;1.08;;
74974;SDS011;68459;50.836;19.138;2023-10-31T07:03:45;3.08;;;0.90;;
74974;SDS011;68459;50.836;19.138;2023-10-31T07:06:48;4.50;;;1.30;;
74974;SDS011;68459;50.836;19.138;2023-10-31T07:09:58;4.77;;;1.50;;
74974;SDS011;68459;50.836;19.138;2023-10-31T07:13:02;4.80;;;1.30;;
74974;SDS011;68459;50.836;19.138;2023-10-31T07:16:07;5.70;;;1.30;;
74974;SDS011;68459;50.836;19.138;2023-10-31T07:19:11;3.42;;;0.93;;
74974;SDS011;68459;50.836;19.138;2023-10-31T07:22:15;2.88;;;1.08;;
74974;SDS011;68459;50.836;19.138;2023-10-31T07:25:20;5.82;;;1.52;;
74974;SDS011;68459;50.836;19.138;2023-10-31T07:28:23;3.80;;;0.93;;
74974;SDS011;68459;50.836;19.138;2023-10-31T07:31:29;4.90;;;1.17;;
74974;SDS011;68459;50.836;19.138;2023-10-31T07:34:33;4.38;;;1.15;;
74974;SDS011;68459;50.836;19.138;2023-10-31T07:37:36;6.95;;;1.30;;
74974;SDS011;68459;50.836;19.138;2023-10-31T07:40:40;5.97;;;1.33;;
74974;SDS011;68459;50.836;19.138;2023-10-31T07:43:45;2.80;;;1.20;;
74974;SDS011;68459;50.836;19.138;2023-10-31T07:46:50;5.13;;;1.30;;
74974;SDS011;68459;50.836;19.138;2023-10-31T07:49:54;4.05;;;1.10;;
74974;SDS011;68459;50.836;19.138;2023-10-31T07:52:58;3.77;;;1.50;;
74974;SDS011;68459;50.836;19.138;2023-10-31T07:56:02;3.00;;;1.52;;
74974;SDS011;68459;50.836;19.138;2023-10-31T07:59:06;3.70;;;1.42;;
74974;SDS011;68459;50.836;19.138;2023-10-31T08:02:12;6.83;;;1.33;;
74974;SDS011;68459;50.836;19.138;2023-10-31T08:05:15;5.22;;;1.17;;
74974;SDS011;68459;50.836;19.138;2023-10-31T08:08:19;6.75;;;1.60;;
74974;SDS011;68459;50.836;19.138;2023-10-31T08:11:23;5.15;;;1.50;;
74974;SDS011;68459;50.836;19.138;2023-10-31T08:14:27;3.05;;;1.48;;
74974;SDS011;68459;50.836;19.138;2023-10-31T08:17:32;3.13;;;1.50;;
74974;SDS011;68459;50.836;19.138;2023-10-31T08:20:36;4.85;;;1.75;;
74974;SDS011;68459;50.836;19.138;2023-10-31T08:23:39;5.43;;;1.83;;
74974;SDS011;68459;50.836;19.138;2023-10-31T08:26:43;3.97;;;2.00;;
74974;SDS011;68459;50.836;19.138;2023-10-31T08:29:47;3.58;;;1.35;;
74974;SDS011;68459;50.836;19.138;2023-10-31T08:32:52;4.77;;;1.70;;
74974;SDS011;68459;50.836;19.138;2023-10-31T08:35:58;2.88;;;1.58;;
74974;SDS011;68459;50.836;19.138;2023-10-31T08:39:03;3.35;;;1.65;;
74974;SDS011;68459;50.836;19.138;2023-10-31T08:42:07;3.00;;;1.38;;
74974;SDS011;68459;50.836;19.138;2023-10-31T08:45:11;7.85;;;1.50;;
74974;SDS011;68459;50.836;19.138;2023-10-31T08:48:17;6.50;;;1.70;;
74974;SDS011;68459;50.836;19.138;2023-10-31T08:51:20;2.92;;;1.30;;
74974;SDS011;68459;50.836;19.138;2023-10-31T08:54:25;6.33;;;1.77;;
74974;SDS011;68459;50.836;19.138;2023-10-31T08:57:29;3.20;;;1.48;;
74974;SDS011;68459;50.836;19.138;2023-10-31T09:00:33;3.10;;;1.70;;
74974;SDS011;68459;50.836;19.138;2023-10-31T09:03:38;6.43;;;1.90;;
74974;SDS011;68459;50.836;19.138;2023-10-31T09:06:42;6.38;;;1.90;;
74974;SDS011;68459;50.836;19.138;2023-10-31T09:09:46;3.67;;;1.75;;
74974;SDS011;68459;50.836;19.138;2023-10-31T09:12:49;3.92;;;1.80;;
74974;SDS011;68459;50.836;19.138;2023-10-31T09:15:53;7.60;;;1.75;;
74974;SDS011;68459;50.836;19.138;2023-10-31T09:18:59;3.45;;;1.67;;
74974;SDS011;68459;50.836;19.138;2023-10-31T09:22:03;3.55;;;1.50;;
74974;SDS011;68459;50.836;19.138;2023-10-31T09:25:07;4.93;;;1.50;;
74974;SDS011;68459;50.836;19.138;2023-10-31T09:28:13;4.78;;;1.73;;
74974;SDS011;68459;50.836;19.138;2023-10-31T09:31:17;5.88;;;2.08;;
74974;SDS011;68459;50.836;19.138;2023-10-31T09:34:22;4.63;;;1.80;;
74974;SDS011;68459;50.836;19.138;2023-10-31T09:37:26;4.85;;;1.92;;
74974;SDS011;68459;50.836;19.138;2023-10-31T09:40:30;3.92;;;1.60;;
74974;SDS011;68459;50.836;19.138;2023-10-31T09:43:35;5.75;;;2.00;;
74974;SDS011;68459;50.836;19.138;2023-10-31T09:46:39;6.03;;;1.95;;
74974;SDS011;68459;50.836;19.138;2023-10-31T09:49:45;4.03;;;1.60;;
74974;SDS011;68459;50.836;19.138;2023-10-31T09:52:49;4.35;;;1.90;;
74974;SDS011;68459;50.836;19.138;2023-10-31T09:55:53;5.50;;;1.87;;
74974;SDS011;68459;50.836;19.138;2023-10-31T09:58:59;5.40;;;1.98;;
74974;SDS011;68459;50.836;19.138;2023-10-31T10:02:02;4.45;;;1.98;;
74974;SDS011;68459;50.836;19.138;2023-10-31T10:05:09;4.03;;;1.60;;
74974;SDS011;68459;50.836;19.138;2023-10-31T10:08:14;3.88;;;1.70;;
74974;SDS011;68459;50.836;19.138;2023-10-31T10:11:18;5.63;;;1.73;;
74974;SDS011;68459;50.836;19.138;2023-10-31T10:14:22;3.08;;;1.58;;
74974;SDS011;68459;50.836;19.138;2023-10-31T10:17:27;4.38;;;1.60;;
74974;SDS011;68459;50.836;19.138;2023-10-31T10:20:33;6.18;;;1.80;;
74974;SDS011;68459;50.836;19.138;2023-10-31T10:23:37;2.60;;;1.30;;
74974;SDS011;68459;50.836;19.138;2023-10-31T10:26:41;3.63;;;1.40;;
74974;SDS011;68459;50.836;19.138;2023-10-31T10:29:44;3.25;;;1.15;;
74974;SDS011;68459;50.836;19.138;2023-10-31T10:32:49;2.20;;;1.10;;
74974;SDS011;68459;50.836;19.138;2023-10-31T10:35:55;3.07;;;1.40;;
74974;SDS011;68459;50.836;19.138;2023-10-31T10:38:59;2.85;;;1.25;;
74974;SDS011;68459;50.836;19.138;2023-10-31T10:42:05;2.33;;;1.15;;
74974;SDS011;68459;50.836;19.138;2023-10-31T10:45:14;4.90;;;1.40;;
74974;SDS011;68459;50.836;19.138;2023-10-31T10:48:20;2.85;;;1.08;;
74974;SDS011;68459;50.836;19.138;2023-10-31T10:51:29;2.50;;;1.00;;
74974;SDS011;68459;50.836;19.138;2023-10-31T10:54:45;2.58;;;1.25;;
74974;SDS011;68459;50.836;19.138;2023-10-31T10:57:56;2.47;;;1.07;;
74974;SDS011;68459;50.836;19.138;2023-10-31T11:01:03;4.07;;;1.20;;
74974;SDS011;68459;50.836;19.138;2023-10-31T11:04:08;3.28;;;1.10;;
74974;SDS011;68459;50.836;19.138;2023-10-31T11:07:13;3.30;;;1.27;;
74974;SDS011;68459;50.836;19.138;2023-10-31T11:10:18;3.00;;;0.90;;
74974;SDS011;68459;50.836;19.138;2023-10-31T11:13:22;2.90;;;1.00;;
74974;SDS011;68459;50.836;19.138;2023-10-31T11:16:28;4.03;;;1.30;;
74974;SDS011;68459;50.836;19.138;2023-10-31T11:19:35;2.40;;;1.13;;
74974;SDS011;68459;50.836;19.138;2023-10-31T11:22:41;2.85;;;1.30;;
74974;SDS011;68459;50.836;19.138;2023-10-31T11:25:49;2.53;;;1.30;;
74974;SDS011;68459;50.836;19.138;2023-10-31T11:29:02;3.10;;;1.20;;
74974;SDS011;68459;50.836;19.138;2023-10-31T11:32:08;3.17;;;1.50;;
74974;SDS011;68459;50.836;19.138;2023-10-31T11:35:12;2.78;;;1.40;;
74974;SDS011;68459;50.836;19.138;2023-10-31T11:38:28;3.60;;;1.10;;
74974;SDS011;68459;50.836;19.138;2023-10-31T11:41:35;3.63;;;1.20;;
74974;SDS011;68459;50.836;19.138;2023-10-31T11:44:45;3.05;;;1.10;;
74974;SDS011;68459;50.836;19.138;2023-10-31T11:47:58;2.40;;;1.10;;
74974;SDS011;68459;50.836;19.138;2023-10-31T11:51:02;4.75;;;0.98;;
74974;SDS011;68459;50.836;19.138;2023-10-31T11:54:07;4.18;;;1.25;;
74974;SDS011;68459;50.836;19.138;2023-10-31T11:57:11;3.28;;;1.10;;
74974;SDS011;68459;50.836;19.138;2023-10-31T12:00:29;5.40;;;1.27;;
74974;SDS011;68459;50.836;19.138;2023-10-31T12:03:36;3.42;;;1.00;;
74974;SDS011;68459;50.836;19.138;2023-10-31T12:06:40;2.72;;;1.08;;
74974;SDS011;68459;50.836;19.138;2023-10-31T12:09:48;2.80;;;0.90;;
74974;SDS011;68459;50.836;19.138;2023-10-31T12:12:52;1.77;;;0.80;;
74974;SDS011;68459;50.836;19.138;2023-10-31T12:15:57;2.75;;;0.90;;
74974;SDS011;68459;50.836;19.138;2023-10-31T12:19:03;3.80;;;0.90;;
74974;SDS011;68459;50.836;19.138;2023-10-31T12:22:12;1.92;;;0.82;;
74974;SDS011;68459;50.836;19.138;2023-10-31T12:25:18;2.30;;;0.80;;
74974;SDS011;68459;50.836;19.138;2023-10-31T12:28:23;1.70;;;0.70;;
74974;SDS011;68459;50.836;19.138;2023-10-31T12:31:28;2.10;;;1.00;;
74974;SDS011;68459;50.836;19.138;2023-10-31T12:34:32;3.10;;;0.60;;
74974;SDS011;68459;50.836;19.138;2023-10-31T12:37:36;1.75;;;0.68;;
74974;SDS011;68459;50.836;19.138;2023-10-31T12:40:42;2.47;;;0.80;;
74974;SDS011;68459;50.836;19.138;2023-10-31T12:43:47;1.65;;;0.68;;
74974;SDS011;68459;50.836;19.138;2023-10-31T12:46:51;1.65;;;0.80;;
74974;SDS011;68459;50.836;19.138;2023-10-31T12:50:07;1.70;;;0.80;;
74974;SDS011;68459;50.836;19.138;2023-10-31T12:53:22;1.83;;;0.80;;
74974;SDS011;68459;50.836;19.138;2023-10-31T12:56:40;1.77;;;0.60;;
74974;SDS011;68459;50.836;19.138;2023-10-31T12:59:44;1.48;;;0.50;;
74974;SDS011;68459;50.836;19.138;2023-10-31T13:02:48;1.70;;;0.70;;
74974;SDS011;68459;50.836;19.138;2023-10-31T13:05:52;1.45;;;0.50;;
74974;SDS011;68459;50.836;19.138;2023-10-31T13:08:56;1.83;;;0.40;;
74974;SDS011;68459;50.836;19.138;2023-10-31T13:12:02;1.50;;;0.50;;
74974;SDS011;68459;50.836;19.138;2023-10-31T13:15:08;2.88;;;0.40;;
74974;SDS011;68459;50.836;19.138;2023-10-31T13:18:12;1.70;;;0.43;;
74974;SDS011;68459;50.836;19.138;2023-10-31T13:21:17;1.30;;;0.45;;
74974;SDS011;68459;50.836;19.138;2023-10-31T13:24:20;1.63;;;0.50;;
74974;SDS011;68459;50.836;19.138;2023-10-31T13:27:25;1.27;;;0.45;;
74974;SDS011;68459;50.836;19.138;2023-10-31T13:30:30;1.00;;;0.32;;
74974;SDS011;68459;50.836;19.138;2023-10-31T13:33:33;1.80;;;0.40;;
74974;SDS011;68459;50.836;19.138;2023-10-31T13:36:38;1.10;;;0.30;;
74974;SDS011;68459;50.836;19.138;2023-10-31T13:39:41;1.95;;;0.60;;
74974;SDS011;68459;50.836;19.138;2023-10-31T13:42:47;3.90;;;0.80;;
74974;SDS011;68459;50.836;19.138;2023-10-31T13:45:50;1.70;;;0.52;;
74974;SDS011;68459;50.836;19.138;2023-10-31T13:48:54;1.83;;;0.50;;
74974;SDS011;68459;50.836;19.138;2023-10-31T13:51:57;1.60;;;0.63;;
74974;SDS011;68459;50.836;19.138;2023-10-31T13:55:02;2.22;;;0.70;;
74974;SDS011;68459;50.836;19.138;2023-10-31T13:58:07;1.42;;;0.52;;
74974;SDS011;68459;50.836;19.138;2023-10-31T14:01:11;2.50;;;0.65;;
74974;SDS011;68459;50.836;19.138;2023-10-31T14:04:15;1.63;;;0.50;;
74974;SDS011;68459;50.836;19.138;2023-10-31T14:07:20;2.20;;;0.65;;
74974;SDS011;68459;50.836;19.138;2023-10-31T14:10:26;3.03;;;0.90;;
74974;SDS011;68459;50.836;19.138;2023-10-31T14:13:31;2.53;;;0.70;;
74974;SDS011;68459;50.836;19.138;2023-10-31T14:16:34;3.63;;;0.70;;
74974;SDS011;68459;50.836;19.138;2023-10-31T14:19:38;1.88;;;0.60;;
74974;SDS011;68459;50.836;19.138;2023-10-31T14:22:47;1.80;;;0.63;;
74974;SDS011;68459;50.836;19.138;2023-10-31T14:25:51;1.67;;;0.63;;
74974;SDS011;68459;50.836;19.138;2023-10-31T14:28:56;2.05;;;1.08;;
74974;SDS011;68459;50.836;19.138;2023-10-31T14:32:05;2.92;;;0.77;;
74974;SDS011;68459;50.836;19.138;2023-10-31T14:35:09;3.03;;;1.00;;
74974;SDS011;68459;50.836;19.138;2023-10-31T14:38:13;2.42;;;1.00;;
74974;SDS011;68459;50.836;19.138;2023-10-31T14:41:17;2.17;;;0.80;;
74974;SDS011;68459;50.836;19.138;2023-10-31T14:44:22;2.70;;;0.80;;
74974;SDS011;68459;50.836;19.138;2023-10-31T14:47:27;1.77;;;0.70;;
74974;SDS011;68459;50.836;19.138;2023-10-31T14:50:31;3.53;;;0.93;;
74974;SDS011;68459;50.836;19.138;2023-10-31T14:53:46;2.33;;;0.70;;
74974;SDS011;68459;50.836;19.138;2023-10-31T14:56:51;1.83;;;0.80;;
74974;SDS011;68459;50.836;19.138;2023-10-31T14:59:56;3.28;;;1.20;;
74974;SDS011;68459;50.836;19.138;2023-10-31T15:03:01;3.08;;;1.25;;
74974;SDS011;68459;50.836;19.138;2023-10-31T15:06:06;5.17;;;1.17;;
74974;SDS011;68459;50.836;19.138;2023-10-31T15:09:11;2.42;;;1.33;;
74974;SDS011;68459;50.836;19.138;2023-10-31T15:12:15;3.85;;;1.55;;
74974;SDS011;68459;50.836;19.138;2023-10-31T15:15:21;4.63;;;1.50;;
74974;SDS011;68459;50.836;19.138;2023-10-31T15:18:24;5.10;;;2.15;;
74974;SDS011;68459;50.836;19.138;2023-10-31T15:21:28;5.60;;;2.00;;
74974;SDS011;68459;50.836;19.138;2023-10-31T15:24:32;5.57;;;2.03;;
74974;SDS011;68459;50.836;19.138;2023-10-31T15:27:36;6.10;;;1.95;;
74974;SDS011;68459;50.836;19.138;2023-10-31T15:30:41;5.50;;;2.15;;
74974;SDS011;68459;50.836;19.138;2023-10-31T15:33:45;7.18;;;2.15;;
74974;SDS011;68459;50.836;19.138;2023-10-31T15:36:48;4.27;;;1.80;;
74974;SDS011;68459;50.836;19.138;2023-10-31T15:39:52;2.97;;;1.45;;
74974;SDS011;68459;50.836;19.138;2023-10-31T15:42:55;2.78;;;1.20;;
74974;SDS011;68459;50.836;19.138;2023-10-31T15:46:01;4.13;;;1.40;;
74974;SDS011;68459;50.836;19.138;2023-10-31T15:49:04;3.15;;;1.40;;
74974;SDS011;68459;50.836;19.138;2023-10-31T15:52:09;5.20;;;1.92;;
74974;SDS011;68459;50.836;19.138;2023-10-31T15:55:12;4.55;;;1.70;;
74974;SDS011;68459;50.836;19.138;2023-10-31T15:58:16;5.25;;;1.92;;
74974;SDS011;68459;50.836;19.138;2023-10-31T16:01:21;4.88;;;1.77;;
74974;SDS011;68459;50.836;19.138;2023-10-31T16:04:25;2.95;;;1.48;;
74974;SDS011;68459;50.836;19.138;2023-10-31T16:07:30;3.33;;;1.60;;
74974;SDS011;68459;50.836;19.138;2023-10-31T16:10:35;4.43;;;2.10;;
74974;SDS011;68459;50.836;19.138;2023-10-31T16:13:38;4.28;;;1.95;;
74974;SDS011;68459;50.836;19.138;2023-10-31T16:16:44;6.10;;;2.40;;
74974;SDS011;68459;50.836;19.138;2023-10-31T16:19:48;4.85;;;2.90;;
74974;SDS011;68459;50.836;19.138;2023-10-31T16:22:52;7.68;;;3.25;;
74974;SDS011;68459;50.836;19.138;2023-10-31T16:25:55;7.47;;;3.90;;
74974;SDS011;68459;50.836;19.138;2023-10-31T16:28:59;10.52;;;3.40;;
74974;SDS011;68459;50.836;19.138;2023-10-31T16:32:04;6.90;;;4.07;;
74974;SDS011;68459;50.836;19.138;2023-10-31T16:35:10;8.55;;;3.92;;
74974;SDS011;68459;50.836;19.138;2023-10-31T16:38:13;10.20;;;4.90;;
74974;SDS011;68459;50.836;19.138;2023-10-31T16:41:17;12.38;;;5.63;;
74974;SDS011;68459;50.836;19.138;2023-10-31T16:44:20;16.65;;;6.88;;
74974;SDS011;68459;50.836;19.138;2023-10-31T16:47:26;12.17;;;6.13;;
74974;SDS011;68459;50.836;19.138;2023-10-31T16:50:29;11.20;;;4.32;;
74974;SDS011;68459;50.836;19.138;2023-10-31T16:53:35;10.07;;;4.22;;
74974;SDS011;68459;50.836;19.138;2023-10-31T16:56:40;14.68;;;6.15;;
74974;SDS011;68459;50.836;19.138;2023-10-31T16:59:44;13.70;;;5.85;;
74974;SDS011;68459;50.836;19.138;2023-10-31T17:02:49;8.38;;;4.60;;
74974;SDS011;68459;50.836;19.138;2023-10-31T17:05:53;8.70;;;4.88;;
74974;SDS011;68459;50.836;19.138;2023-10-31T17:08:57;11.47;;;5.03;;
74974;SDS011;68459;50.836;19.138;2023-10-31T17:12:01;9.52;;;4.90;;
74974;SDS011;68459;50.836;19.138;2023-10-31T17:15:05;10.90;;;6.25;;
74974;SDS011;68459;50.836;19.138;2023-10-31T17:18:11;14.43;;;7.47;;
74974;SDS011;68459;50.836;19.138;2023-10-31T17:21:17;11.05;;;6.70;;
74974;SDS011;68459;50.836;19.138;2023-10-31T17:24:21;12.05;;;7.60;;
74974;SDS011;68459;50.836;19.138;2023-10-31T17:27:24;10.68;;;5.95;;
74974;SDS011;68459;50.836;19.138;2023-10-31T17:30:28;13.63;;;6.45;;
74974;SDS011;68459;50.836;19.138;2023-10-31T17:33:33;12.65;;;6.20;;
74974;SDS011;68459;50.836;19.138;2023-10-31T17:36:37;10.52;;;5.80;;
74974;SDS011;68459;50.836;19.138;2023-10-31T17:39:41;11.03;;;5.27;;
74974;SDS011;68459;50.836;19.138;2023-10-31T17:42:45;14.52;;;6.20;;
74974;SDS011;68459;50.836;19.138;2023-10-31T17:45:49;9.32;;;5.43;;
74974;SDS011;68459;50.836;19.138;2023-10-31T17:48:54;12.73;;;6.13;;
74974;SDS011;68459;50.836;19.138;2023-10-31T17:51:58;11.48;;;6.22;;
74974;SDS011;68459;50.836;19.138;2023-10-31T17:55:04;9.57;;;5.18;;
74974;SDS011;68459;50.836;19.138;2023-10-31T17:58:07;9.32;;;5.28;;
74974;SDS011;68459;50.836;19.138;2023-10-31T18:01:12;11.05;;;5.68;;
74974;SDS011;68459;50.836;19.138;2023-10-31T18:04:17;10.13;;;5.25;;
74974;SDS011;68459;50.836;19.138;2023-10-31T18:07:20;9.63;;;5.47;;
74974;SDS011;68459;50.836;19.138;2023-10-31T18:10:24;8.30;;;4.67;;
74974;SDS011;68459;50.836;19.138;2023-10-31T18:13:28;9.88;;;4.70;;
74974;SDS011;68459;50.836;19.138;2023-10-31T18:16:31;9.98;;;3.75;;